sensor_id;sensor_type;location;lat;lon;timestamp;pressure;altitude;pressure_sealevel;temperature;humidity
61742;BME280;47650;49.848;9.620;2023-05-01T00:01:04;99564.81;;;9.02;61.10
61742;BME280;47650;49.848;9.620;2023-05-01T00:03:32;99761.00;;;10.28;60.93
61742;BME280;47650;49.848;9.620;2023-05-01T00:06:03;99781.78;;;10.32;62.02
61742;BME280;47650;49.848;9.620;2023-05-01T00:08:33;99695.16;;;9.74;61.87
61742;BME280;47650;49.848;9.620;2023-05-01T00:11:05;99774.06;;;10.29;61.30
61742;BME280;47650;49.848;9.620;2023-05-01T00:13:41;99775.47;;;10.24;62.00
61742;BME280;47650;49.848;9.620;2023-05-01T00:16:16;99769.63;;;10.20;61.82
61742;BME280;47650;49.848;9.620;2023-05-01T00:18:43;99687.34;;;9.53;62.23
61742;BME280;47650;49.848;9.620;2023-05-01T00:21:09;99660.88;;;9.53;62.00
61742;BME280;47650;49.848;9.620;2023-05-01T00:23:34;99761.25;;;10.15;61.97
61742;BME280;47650;49.848;9.620;2023-05-01T00:26:01;99768.50;;;10.13;61.83
61742;BME280;47650;49.848;9.620;2023-05-01T00:28:27;99681.63;;;9.68;62.33
61742;BME280;47650;49.848;9.620;2023-05-01T00:30:53;99679.41;;;9.53;62.29
61742;BME280;47650;49.848;9.620;2023-05-01T00:33:18;99615.09;;;9.22;62.13
61742;BME280;47650;49.848;9.620;2023-05-01T00:35:44;99748.41;;;10.01;62.81
61742;BME280;47650;49.848;9.620;2023-05-01T00:38:09;99757.31;;;10.00;62.47
61742;BME280;47650;49.848;9.620;2023-05-01T00:40:41;99713.38;;;9.77;62.67
61742;BME280;47650;49.848;9.620;2023-05-01T00:43:06;99741.72;;;9.96;62.57
61742;BME280;47650;49.848;9.620;2023-05-01T00:45:32;99749.94;;;9.93;62.34
61742;BME280;47650;49.848;9.620;2023-05-01T00:47:57;99742.41;;;9.89;62.08
61742;BME280;47650;49.848;9.620;2023-05-01T00:50:24;99541.34;;;8.59;63.14
61742;BME280;47650;49.848;9.620;2023-05-01T00:52:50;99739.75;;;9.79;62.97
61742;BME280;47650;49.848;9.620;2023-05-01T00:55:17;99677.94;;;9.39;62.39
61742;BME280;47650;49.848;9.620;2023-05-01T00:57:44;99362.97;;;7.43;62.67
61742;BME280;47650;49.848;9.620;2023-05-01T01:00:11;99716.25;;;9.35;63.01
61742;BME280;47650;49.848;9.620;2023-05-01T01:02:37;99730.25;;;9.67;62.39
61742;BME280;47650;49.848;9.620;2023-05-01T01:05:02;99730.50;;;9.64;62.43
61742;BME280;47650;49.848;9.620;2023-05-01T01:10:34;99700.41;;;9.45;63.17
61742;BME280;47650;49.848;9.620;2023-05-01T01:13:06;99701.50;;;9.43;62.90
61742;BME280;47650;49.848;9.620;2023-05-01T01:18:32;99646.97;;;9.11;62.82
61742;BME280;47650;49.848;9.620;2023-05-01T01:21:06;99712.63;;;9.46;62.64
61742;BME280;47650;49.848;9.620;2023-05-01T01:29:38;99705.53;;;9.37;62.87
61742;BME280;47650;49.848;9.620;2023-05-01T01:35:00;99649.84;;;8.98;63.13
61742;BME280;47650;49.848;9.620;2023-05-01T01:37:28;99697.41;;;9.29;63.54
61742;BME280;47650;49.848;9.620;2023-05-01T01:40:02;99701.19;;;9.26;63.74
61742;BME280;47650;49.848;9.620;2023-05-01T01:42:36;99696.03;;;9.25;63.54
61742;BME280;47650;49.848;9.620;2023-05-01T01:45:14;99688.91;;;9.15;63.73
61742;BME280;47650;49.848;9.620;2023-05-01T01:47:59;99543.03;;;8.29;63.96
61742;BME280;47650;49.848;9.620;2023-05-01T01:50:30;99589.19;;;8.56;63.59
61742;BME280;47650;49.848;9.620;2023-05-01T01:53:00;99568.97;;;8.45;63.62
61742;BME280;47650;49.848;9.620;2023-05-01T01:55:28;99632.66;;;8.73;63.77
61742;BME280;47650;49.848;9.620;2023-05-01T01:57:58;99691.81;;;9.12;63.80
61742;BME280;47650;49.848;9.620;2023-05-01T02:00:25;99684.72;;;9.13;63.70
61742;BME280;47650;49.848;9.620;2023-05-01T02:02:52;99674.94;;;9.13;64.04
61742;BME280;47650;49.848;9.620;2023-05-01T02:05:21;99603.00;;;8.69;64.25
61742;BME280;47650;49.848;9.620;2023-05-01T02:07:50;99652.94;;;9.03;64.04
61742;BME280;47650;49.848;9.620;2023-05-01T02:10:18;99675.25;;;9.20;63.80
61742;BME280;47650;49.848;9.620;2023-05-01T02:12:50;99622.72;;;8.96;63.72
61742;BME280;47650;49.848;9.620;2023-05-01T02:15:17;99556.94;;;8.62;63.72
61742;BME280;47650;49.848;9.620;2023-05-01T02:17:43;99587.88;;;8.81;63.64
61742;BME280;47650;49.848;9.620;2023-05-01T02:20:16;99527.25;;;8.49;63.22
61742;BME280;47650;49.848;9.620;2023-05-01T02:22:43;99656.34;;;9.25;63.28
61742;BME280;47650;49.848;9.620;2023-05-01T02:25:12;99667.06;;;9.23;63.54
61742;BME280;47650;49.848;9.620;2023-05-01T02:28:01;99663.72;;;9.21;63.44
61742;BME280;47650;49.848;9.620;2023-05-01T02:30:28;99666.22;;;9.22;63.53
61742;BME280;47650;49.848;9.620;2023-05-01T02:32:55;99666.22;;;9.22;63.38
61742;BME280;47650;49.848;9.620;2023-05-01T02:35:21;99659.94;;;9.23;63.30
61742;BME280;47650;49.848;9.620;2023-05-01T02:37:47;99661.91;;;9.21;63.54
61742;BME280;47650;49.848;9.620;2023-05-01T02:40:13;99654.41;;;9.27;63.42
61742;BME280;47650;49.848;9.620;2023-05-01T02:42:44;99616.19;;;9.00;63.48
61742;BME280;47650;49.848;9.620;2023-05-01T02:45:18;99654.81;;;9.32;63.64
61742;BME280;47650;49.848;9.620;2023-05-01T02:47:45;99630.41;;;9.18;63.64
61742;BME280;47650;49.848;9.620;2023-05-01T02:50:12;99554.03;;;8.75;63.76
61742;BME280;47650;49.848;9.620;2023-05-01T02:52:40;99623.22;;;9.20;63.60
61742;BME280;47650;49.848;9.620;2023-05-01T02:55:07;99532.59;;;8.68;63.89
61742;BME280;47650;49.848;9.620;2023-05-01T02:57:32;99646.34;;;9.38;63.47
61742;BME280;47650;49.848;9.620;2023-05-01T02:59:58;99639.25;;;9.38;63.48
61742;BME280;47650;49.848;9.620;2023-05-01T03:02:23;99513.53;;;8.55;63.52
61742;BME280;47650;49.848;9.620;2023-05-01T03:04:49;99637.69;;;9.36;64.13
61742;BME280;47650;49.848;9.620;2023-05-01T03:07:18;99608.97;;;9.12;64.30
61742;BME280;47650;49.848;9.620;2023-05-01T03:09:43;99641.06;;;9.38;64.19
61742;BME280;47650;49.848;9.620;2023-05-01T03:12:09;99642.72;;;9.39;64.16
61742;BME280;47650;49.848;9.620;2023-05-01T03:14:34;99639.09;;;9.40;63.90
61742;BME280;47650;49.848;9.620;2023-05-01T03:17:00;99574.84;;;8.99;63.69
61742;BME280;47650;49.848;9.620;2023-05-01T03:19:33;99637.16;;;9.42;63.59
61742;BME280;47650;49.848;9.620;2023-05-01T03:21:58;99585.44;;;9.18;63.56
61742;BME280;47650;49.848;9.620;2023-05-01T03:24:24;99637.97;;;9.43;63.09
61742;BME280;47650;49.848;9.620;2023-05-01T03:26:49;99610.38;;;9.26;63.15
61742;BME280;47650;49.848;9.620;2023-05-01T03:29:14;99560.50;;;8.92;63.12
61742;BME280;47650;49.848;9.620;2023-05-01T03:31:42;99639.09;;;9.40;63.20
61742;BME280;47650;49.848;9.620;2023-05-01T03:34:08;99623.22;;;9.30;63.17
61742;BME280;47650;49.848;9.620;2023-05-01T03:36:33;99640.75;;;9.41;63.47
61742;BME280;47650;49.848;9.620;2023-05-01T03:38:58;99632.00;;;9.40;63.36
61742;BME280;47650;49.848;9.620;2023-05-01T03:41:24;99639.81;;;9.42;63.45
61742;BME280;47650;49.848;9.620;2023-05-01T03:43:49;99530.53;;;8.72;64.03
61742;BME280;47650;49.848;9.620;2023-05-01T03:46:22;99543.78;;;8.81;63.79
61742;BME280;47650;49.848;9.620;2023-05-01T03:48:48;99512.16;;;8.60;64.10
61742;BME280;47650;49.848;9.620;2023-05-01T03:51:14;99610.38;;;9.26;64.14
61742;BME280;47650;49.848;9.620;2023-05-01T03:53:41;99621.00;;;9.35;63.85
61742;BME280;47650;49.848;9.620;2023-05-01T03:56:07;99633.53;;;9.43;63.90
61742;BME280;47650;49.848;9.620;2023-05-01T03:58:33;99637.84;;;9.44;63.98
61742;BME280;47650;49.848;9.620;2023-05-01T04:00:59;99643.84;;;9.46;64.00
61742;BME280;47650;49.848;9.620;2023-05-01T04:03:30;99643.56;;;9.49;63.83
61742;BME280;47650;49.848;9.620;2023-05-01T04:05:56;99526.78;;;8.84;63.49
61742;BME280;47650;49.848;9.620;2023-05-01T04:08:21;99525.69;;;8.87;63.65
61742;BME280;47650;49.848;9.620;2023-05-01T04:10:47;99550.66;;;9.03;63.26
61742;BME280;47650;49.848;9.620;2023-05-01T04:13:12;99632.13;;;9.58;63.40
61742;BME280;47650;49.848;9.620;2023-05-01T04:15:42;99626.28;;;9.55;63.11
61742;BME280;47650;49.848;9.620;2023-05-01T04:18:08;99618.78;;;9.50;63.12
61742;BME280;47650;49.848;9.620;2023-05-01T04:20:33;99640.38;;;9.65;63.24
61742;BME280;47650;49.848;9.620;2023-05-01T04:23:00;99602.47;;;9.45;62.96
61742;BME280;47650;49.848;9.620;2023-05-01T04:25:26;99482.13;;;8.71;62.49
61742;BME280;47650;49.848;9.620;2023-05-01T04:27:51;99625.75;;;9.71;62.63
61742;BME280;47650;49.848;9.620;2023-05-01T04:30:18;99660.88;;;9.73;62.52
61742;BME280;47650;49.848;9.620;2023-05-01T04:32:43;99543.97;;;9.29;62.75
61742;BME280;47650;49.848;9.620;2023-05-01T04:35:10;99631.59;;;9.84;62.86
61742;BME280;47650;49.848;9.620;2023-05-01T04:37:36;99605.81;;;9.76;62.72
61742;BME280;47650;49.848;9.620;2023-05-01T04:40:02;99612.09;;;9.85;62.55
61742;BME280;47650;49.848;9.620;2023-05-01T04:42:31;99621.97;;;10.03;62.60
61742;BME280;47650;49.848;9.620;2023-05-01T04:44:57;99499.28;;;9.35;62.19
61742;BME280;47650;49.848;9.620;2023-05-01T04:47:27;99628.63;;;10.16;61.96
61742;BME280;47650;49.848;9.620;2023-05-01T04:49:54;99559.13;;;9.85;61.57
61742;BME280;47650;49.848;9.620;2023-05-01T04:52:19;99512.91;;;9.60;61.60
61742;BME280;47650;49.848;9.620;2023-05-01T04:54:46;99605.06;;;10.23;61.34
61742;BME280;47650;49.848;9.620;2023-05-01T04:57:11;99538.91;;;9.94;61.44
61742;BME280;47650;49.848;9.620;2023-05-01T04:59:37;99612.28;;;10.41;61.54
61742;BME280;47650;49.848;9.620;2023-05-01T05:02:03;99647.97;;;10.56;61.54
61742;BME280;47650;49.848;9.620;2023-05-01T05:04:29;99627.84;;;10.63;61.49
61742;BME280;47650;49.848;9.620;2023-05-01T05:06:55;99623.63;;;10.70;61.10
61742;BME280;47650;49.848;9.620;2023-05-01T05:09:20;99582.09;;;10.61;61.12
61742;BME280;47650;49.848;9.620;2023-05-01T05:11:48;99621.06;;;10.88;60.99
61742;BME280;47650;49.848;9.620;2023-05-01T05:14:13;99622.53;;;11.01;61.21
61742;BME280;47650;49.848;9.620;2023-05-01T05:16:40;99621.34;;;11.13;60.55
61742;BME280;47650;49.848;9.620;2023-05-01T05:19:07;99614.31;;;11.22;60.74
61742;BME280;47650;49.848;9.620;2023-05-01T05:21:32;99479.94;;;10.57;60.53
61742;BME280;47650;49.848;9.620;2023-05-01T05:23:59;99589.59;;;11.39;59.74
61742;BME280;47650;49.848;9.620;2023-05-01T05:26:26;99608.84;;;11.77;59.51
61742;BME280;47650;49.848;9.620;2023-05-01T05:28:52;99570.25;;;11.65;58.80
61742;BME280;47650;49.848;9.620;2023-05-01T05:31:18;99556.56;;;11.78;58.87
61742;BME280;47650;49.848;9.620;2023-05-01T05:33:43;99584.91;;;12.13;58.62
61742;BME280;47650;49.848;9.620;2023-05-01T05:36:09;99558.66;;;12.10;57.47
61742;BME280;47650;49.848;9.620;2023-05-01T05:38:34;99600.88;;;12.39;56.21
61742;BME280;47650;49.848;9.620;2023-05-01T05:41:00;99602.09;;;12.53;56.44
61742;BME280;47650;49.848;9.620;2023-05-01T05:43:26;99576.22;;;12.64;55.74
61742;BME280;47650;49.848;9.620;2023-05-01T05:45:56;99528.97;;;12.57;54.55
61742;BME280;47650;49.848;9.620;2023-05-01T05:48:22;99594.44;;;13.44;54.47
61742;BME280;47650;49.848;9.620;2023-05-01T05:50:47;99594.97;;;13.72;53.50
61742;BME280;47650;49.848;9.620;2023-05-01T05:53:15;99569.50;;;13.61;53.04
61742;BME280;47650;49.848;9.620;2023-05-01T05:55:41;99551.47;;;13.96;51.47
61742;BME280;47650;49.848;9.620;2023-05-01T05:58:08;99595.09;;;14.28;50.82
61742;BME280;47650;49.848;9.620;2023-05-01T06:00:33;99522.53;;;13.85;51.03
61742;BME280;47650;49.848;9.620;2023-05-01T06:02:59;99577.06;;;14.46;49.99
61742;BME280;47650;49.848;9.620;2023-05-01T06:05:25;99576.44;;;14.84;49.11
61742;BME280;47650;49.848;9.620;2023-05-01T06:07:58;99582.88;;;14.98;48.30
61742;BME280;47650;49.848;9.620;2023-05-01T06:10:24;99582.25;;;14.88;48.69
61742;BME280;47650;49.848;9.620;2023-05-01T06:12:49;99578.16;;;14.77;48.39
61742;BME280;47650;49.848;9.620;2023-05-01T06:15:16;99515.31;;;14.66;47.09
61742;BME280;47650;49.848;9.620;2023-05-01T06:17:44;99546.41;;;15.13;47.10
61742;BME280;47650;49.848;9.620;2023-05-01T06:20:10;99465.97;;;15.16;45.23
61742;BME280;47650;49.848;9.620;2023-05-01T06:22:37;99551.88;;;15.89;44.90
61742;BME280;47650;49.848;9.620;2023-05-01T06:25:03;99557.41;;;15.65;45.51
61742;BME280;47650;49.848;9.620;2023-05-01T06:27:33;99555.41;;;15.67;44.55
61742;BME280;47650;49.848;9.620;2023-05-01T06:29:58;99559.56;;;15.92;44.45
61742;BME280;47650;49.848;9.620;2023-05-01T06:32:24;99546.47;;;15.97;43.87
61742;BME280;47650;49.848;9.620;2023-05-01T06:34:49;99528.13;;;15.94;43.07
61742;BME280;47650;49.848;9.620;2023-05-01T06:37:15;99543.16;;;16.10;42.94
61742;BME280;47650;49.848;9.620;2023-05-01T06:39:42;99487.19;;;15.71;41.69
61742;BME280;47650;49.848;9.620;2023-05-01T06:42:07;99492.44;;;16.17;41.33
61742;BME280;47650;49.848;9.620;2023-05-01T06:44:36;99523.44;;;16.56;41.55
61742;BME280;47650;49.848;9.620;2023-05-01T06:47:02;99541.91;;;16.51;42.82
61742;BME280;47650;49.848;9.620;2023-05-01T06:49:27;99546.56;;;16.79;41.76
61742;BME280;47650;49.848;9.620;2023-05-01T06:54:29;99548.31;;;17.23;40.46
61742;BME280;47650;49.848;9.620;2023-05-01T06:56:55;99522.72;;;15.79;42.15
61742;BME280;47650;49.848;9.620;2023-05-01T06:59:21;99366.56;;;15.74;40.54
61742;BME280;47650;49.848;9.620;2023-05-01T07:01:47;99510.47;;;17.11;39.83
61742;BME280;47650;49.848;9.620;2023-05-01T07:04:12;99537.22;;;17.47;39.96
61742;BME280;47650;49.848;9.620;2023-05-01T07:06:38;99535.81;;;17.30;39.99
61742;BME280;47650;49.848;9.620;2023-05-01T07:09:05;99468.03;;;17.08;40.64
61742;BME280;47650;49.848;9.620;2023-05-01T07:11:32;99440.00;;;17.10;38.75
61742;BME280;47650;49.848;9.620;2023-05-01T07:13:57;99526.69;;;17.67;39.20
61742;BME280;47650;49.848;9.620;2023-05-01T07:16:23;99530.25;;;17.75;38.60
61742;BME280;47650;49.848;9.620;2023-05-01T07:18:49;99529.28;;;17.82;38.95
61742;BME280;47650;49.848;9.620;2023-05-01T07:21:14;99496.69;;;17.85;38.22
61742;BME280;47650;49.848;9.620;2023-05-01T07:23:39;99499.50;;;17.71;38.12
61742;BME280;47650;49.848;9.620;2023-05-01T07:26:07;99520.00;;;17.14;39.16
61742;BME280;47650;49.848;9.620;2023-05-01T07:28:33;99517.56;;;17.62;38.15
61742;BME280;47650;49.848;9.620;2023-05-01T07:30:58;99519.22;;;16.98;38.92
61742;BME280;47650;49.848;9.620;2023-05-01T07:33:25;99518.56;;;17.82;38.24
61742;BME280;47650;49.848;9.620;2023-05-01T07:35:52;99495.34;;;18.25;37.50
61742;BME280;47650;49.848;9.620;2023-05-01T07:38:22;99451.69;;;18.51;36.96
61742;BME280;47650;49.848;9.620;2023-05-01T07:40:52;99481.59;;;19.03;37.46
61742;BME280;47650;49.848;9.620;2023-05-01T07:43:24;99496.28;;;18.93;36.98
61742;BME280;47650;49.848;9.620;2023-05-01T07:45:57;99451.94;;;18.63;37.23
61742;BME280;47650;49.848;9.620;2023-05-01T07:48:24;99509.75;;;19.20;36.00
61742;BME280;47650;49.848;9.620;2023-05-01T07:50:50;99492.63;;;19.48;35.06
61742;BME280;47650;49.848;9.620;2023-05-01T07:53:16;99506.09;;;18.31;36.42
61742;BME280;47650;49.848;9.620;2023-05-01T07:55:43;99495.69;;;19.11;36.31
61742;BME280;47650;49.848;9.620;2023-05-01T07:58:09;99478.97;;;19.36;35.36
61742;BME280;47650;49.848;9.620;2023-05-01T08:00:34;99446.94;;;19.34;35.26
61742;BME280;47650;49.848;9.620;2023-05-01T08:03:02;99441.97;;;19.85;34.38
61742;BME280;47650;49.848;9.620;2023-05-01T08:05:28;99324.50;;;17.90;35.11
61742;BME280;47650;49.848;9.620;2023-05-01T08:07:58;99435.13;;;19.22;34.12
61742;BME280;47650;49.848;9.620;2023-05-01T08:10:24;99492.44;;;19.69;34.00
61742;BME280;47650;49.848;9.620;2023-05-01T08:12:50;99347.25;;;18.89;34.33
61742;BME280;47650;49.848;9.620;2023-05-01T08:15:15;99464.28;;;20.05;34.42
61742;BME280;47650;49.848;9.620;2023-05-01T08:17:43;99461.59;;;20.05;33.76
61742;BME280;47650;49.848;9.620;2023-05-01T08:20:09;99371.59;;;19.68;33.66
61742;BME280;47650;49.848;9.620;2023-05-01T08:22:35;99492.66;;;20.66;32.99
61742;BME280;47650;49.848;9.620;2023-05-01T08:25:06;99494.53;;;20.66;33.32
61742;BME280;47650;49.848;9.620;2023-05-01T08:27:33;99472.09;;;20.14;33.21
61742;BME280;47650;49.848;9.620;2023-05-01T08:30:08;99493.81;;;20.25;33.41
61742;BME280;47650;49.848;9.620;2023-05-01T08:32:34;99419.63;;;19.11;33.71
61742;BME280;47650;49.848;9.620;2023-05-01T08:34:59;99440.72;;;19.34;33.72
61742;BME280;47650;49.848;9.620;2023-05-01T08:37:25;99463.06;;;19.75;33.68
61742;BME280;47650;49.848;9.620;2023-05-01T08:39:52;99491.34;;;20.10;33.73
61742;BME280;47650;49.848;9.620;2023-05-01T08:42:17;99490.53;;;20.03;33.32
61742;BME280;47650;49.848;9.620;2023-05-01T08:44:42;99489.94;;;19.34;33.75
61742;BME280;47650;49.848;9.620;2023-05-01T08:47:15;99453.94;;;19.76;34.49
61742;BME280;47650;49.848;9.620;2023-05-01T08:49:43;99458.09;;;19.85;34.14
61742;BME280;47650;49.848;9.620;2023-05-01T08:52:13;99487.03;;;19.83;33.55
61742;BME280;47650;49.848;9.620;2023-05-01T08:54:44;99482.47;;;19.23;35.22
61742;BME280;47650;49.848;9.620;2023-05-01T08:57:11;99481.25;;;19.72;34.90
61742;BME280;47650;49.848;9.620;2023-05-01T08:59:39;99437.00;;;19.82;34.45
61742;BME280;47650;49.848;9.620;2023-05-01T09:02:07;99465.28;;;20.18;33.82
61742;BME280;47650;49.848;9.620;2023-05-01T09:04:37;99434.38;;;20.27;33.44
61742;BME280;47650;49.848;9.620;2023-05-01T09:07:03;99423.06;;;20.50;32.94
61742;BME280;47650;49.848;9.620;2023-05-01T09:09:29;99470.22;;;20.73;32.86
61742;BME280;47650;49.848;9.620;2023-05-01T09:12:08;99468.56;;;21.10;32.57
61742;BME280;47650;49.848;9.620;2023-05-01T09:14:39;99462.53;;;21.15;31.55
61742;BME280;47650;49.848;9.620;2023-05-01T09:17:05;99465.53;;;21.32;31.96
61742;BME280;47650;49.848;9.620;2023-05-01T09:19:30;99468.78;;;21.40;31.55
61742;BME280;47650;49.848;9.620;2023-05-01T09:21:56;99398.59;;;20.20;32.00
61742;BME280;47650;49.848;9.620;2023-05-01T09:24:25;99430.34;;;19.91;34.21
61742;BME280;47650;49.848;9.620;2023-05-01T09:26:51;99462.91;;;20.35;33.83
61742;BME280;47650;49.848;9.620;2023-05-01T09:29:38;99458.47;;;20.67;33.48
61742;BME280;47650;49.848;9.620;2023-05-01T09:32:24;99437.09;;;20.72;33.08
61742;BME280;47650;49.848;9.620;2023-05-01T09:34:52;99454.13;;;21.30;32.03
61742;BME280;47650;49.848;9.620;2023-05-01T09:37:32;99460.22;;;21.50;31.23
61742;BME280;47650;49.848;9.620;2023-05-01T09:40:05;99471.31;;;21.86;31.27
61742;BME280;47650;49.848;9.620;2023-05-01T09:42:32;99442.13;;;20.55;32.46
61742;BME280;47650;49.848;9.620;2023-05-01T09:45:01;99462.88;;;21.25;32.13
61742;BME280;47650;49.848;9.620;2023-05-01T09:47:29;99342.28;;;20.12;32.02
61742;BME280;47650;49.848;9.620;2023-05-01T09:49:56;99432.34;;;20.67;33.55
61742;BME280;47650;49.848;9.620;2023-05-01T09:52:26;99464.72;;;20.54;33.12
61742;BME280;47650;49.848;9.620;2023-05-01T09:55:24;99464.94;;;20.53;32.88
61742;BME280;47650;49.848;9.620;2023-05-01T09:57:50;99376.38;;;20.24;31.46
61742;BME280;47650;49.848;9.620;2023-05-01T10:00:15;99428.91;;;19.95;32.81
61742;BME280;47650;49.848;9.620;2023-05-01T10:02:44;99462.06;;;20.47;32.56
61742;BME280;47650;49.848;9.620;2023-05-01T10:05:10;99395.97;;;20.45;31.82
61742;BME280;47650;49.848;9.620;2023-05-01T10:07:37;99453.00;;;21.12;31.70
61742;BME280;47650;49.848;9.620;2023-05-01T10:10:20;99462.84;;;21.32;32.02
61742;BME280;47650;49.848;9.620;2023-05-01T10:12:46;99457.94;;;21.47;31.68
61742;BME280;47650;49.848;9.620;2023-05-01T10:15:14;99461.09;;;21.69;31.96
61742;BME280;47650;49.848;9.620;2023-05-01T10:17:40;99455.59;;;21.57;32.21
61742;BME280;47650;49.848;9.620;2023-05-01T10:20:09;99363.13;;;21.00;32.45
61742;BME280;47650;49.848;9.620;2023-05-01T10:22:40;99464.28;;;19.65;34.67
61742;BME280;47650;49.848;9.620;2023-05-01T10:25:09;99477.66;;;18.85;35.85
61742;BME280;47650;49.848;9.620;2023-05-01T10:27:43;99457.25;;;19.78;34.98
61742;BME280;47650;49.848;9.620;2023-05-01T10:30:09;99424.06;;;20.10;34.29
61742;BME280;47650;49.848;9.620;2023-05-01T10:32:37;99344.44;;;19.89;33.67
61742;BME280;47650;49.848;9.620;2023-05-01T10:35:14;99395.34;;;20.50;33.45
61742;BME280;47650;49.848;9.620;2023-05-01T10:37:48;99423.19;;;20.75;33.36
61742;BME280;47650;49.848;9.620;2023-05-01T10:40:42;99460.22;;;20.87;32.85
61742;BME280;47650;49.848;9.620;2023-05-01T10:45:51;99467.66;;;18.72;36.40
61742;BME280;47650;49.848;9.620;2023-05-01T10:53:45;99469.25;;;19.55;34.52
61742;BME280;47650;49.848;9.620;2023-05-01T11:01:40;99459.66;;;18.86;35.16
61742;BME280;47650;49.848;9.620;2023-05-01T11:09:44;99458.84;;;18.37;36.67
61742;BME280;47650;49.848;9.620;2023-05-01T11:12:12;99450.38;;;18.88;37.00
61742;BME280;47650;49.848;9.620;2023-05-01T11:15:05;99347.63;;;18.66;36.92
61742;BME280;47650;49.848;9.620;2023-05-01T11:17:44;99444.84;;;19.63;35.74
61742;BME280;47650;49.848;9.620;2023-05-01T11:20:10;99444.22;;;19.41;34.97
61742;BME280;47650;49.848;9.620;2023-05-01T11:22:44;99357.63;;;19.19;35.57
61742;BME280;47650;49.848;9.620;2023-05-01T11:25:26;99441.09;;;19.84;35.26
61742;BME280;47650;49.848;9.620;2023-05-01T11:27:54;99444.03;;;19.63;34.90
61742;BME280;47650;49.848;9.620;2023-05-01T11:30:21;99442.78;;;19.79;35.38
61742;BME280;47650;49.848;9.620;2023-05-01T11:32:49;99284.41;;;19.24;34.48
61742;BME280;47650;49.848;9.620;2023-05-01T11:35:22;99456.81;;;19.94;34.27
61742;BME280;47650;49.848;9.620;2023-05-01T11:37:48;99432.00;;;19.92;33.57
61742;BME280;47650;49.848;9.620;2023-05-01T11:40:23;99427.03;;;19.89;34.37
61742;BME280;47650;49.848;9.620;2023-05-01T11:42:50;99447.66;;;18.82;36.07
61742;BME280;47650;49.848;9.620;2023-05-01T11:45:18;99440.91;;;19.26;36.17
61742;BME280;47650;49.848;9.620;2023-05-01T11:47:44;99435.53;;;19.32;35.30
61742;BME280;47650;49.848;9.620;2023-05-01T11:50:11;99446.47;;;19.91;34.54
61742;BME280;47650;49.848;9.620;2023-05-01T11:52:49;99369.34;;;19.58;34.85
61742;BME280;47650;49.848;9.620;2023-05-01T11:55:18;99389.72;;;20.13;34.96
61742;BME280;47650;49.848;9.620;2023-05-01T11:57:51;99440.97;;;20.83;33.77
61742;BME280;47650;49.848;9.620;2023-05-01T12:00:34;99388.66;;;20.14;33.94
61742;BME280;47650;49.848;9.620;2023-05-01T12:03:06;99445.91;;;20.41;33.81
61742;BME280;47650;49.848;9.620;2023-05-01T12:05:34;99440.75;;;20.39;34.87
61742;BME280;47650;49.848;9.620;2023-05-01T12:08:16;99432.59;;;20.66;34.61
61742;BME280;47650;49.848;9.620;2023-05-01T12:10:53;99432.00;;;21.21;32.92
61742;BME280;47650;49.848;9.620;2023-05-01T12:13:20;99435.31;;;20.91;33.03
61742;BME280;47650;49.848;9.620;2023-05-01T12:15:48;99437.47;;;20.76;32.84
61742;BME280;47650;49.848;9.620;2023-05-01T12:18:15;99435.97;;;21.18;32.61
61742;BME280;47650;49.848;9.620;2023-05-01T12:20:49;99437.59;;;19.77;34.92
61742;BME280;47650;49.848;9.620;2023-05-01T12:23:19;99403.19;;;20.51;33.99
61742;BME280;47650;49.848;9.620;2023-05-01T12:25:53;99445.91;;;20.47;34.37
61742;BME280;47650;49.848;9.620;2023-05-01T12:28:18;99404.09;;;19.80;34.40
61742;BME280;47650;49.848;9.620;2023-05-01T12:30:45;99438.66;;;19.16;36.29
61742;BME280;47650;49.848;9.620;2023-05-01T12:33:16;99447.16;;;18.58;37.76
61742;BME280;47650;49.848;9.620;2023-05-01T12:35:42;99444.44;;;19.40;36.22
61742;BME280;47650;49.848;9.620;2023-05-01T12:38:16;99444.84;;;19.90;35.36
61742;BME280;47650;49.848;9.620;2023-05-01T12:40:57;99450.56;;;20.72;34.56
61742;BME280;47650;49.848;9.620;2023-05-01T12:43:33;99381.28;;;18.55;36.99
61742;BME280;47650;49.848;9.620;2023-05-01T12:46:01;99444.84;;;19.90;35.94
61742;BME280;47650;49.848;9.620;2023-05-01T12:48:28;99442.56;;;19.94;35.89
61742;BME280;47650;49.848;9.620;2023-05-01T12:50:54;99450.94;;;20.31;35.85
61742;BME280;47650;49.848;9.620;2023-05-01T12:53:21;99446.91;;;19.61;36.68
61742;BME280;47650;49.848;9.620;2023-05-01T12:55:51;99440.06;;;19.65;36.22
61742;BME280;47650;49.848;9.620;2023-05-01T12:58:17;99353.88;;;18.05;37.23
61742;BME280;47650;49.848;9.620;2023-05-01T13:00:51;99384.75;;;17.88;37.94
61742;BME280;47650;49.848;9.620;2023-05-01T13:03:24;99427.47;;;19.26;36.74
61742;BME280;47650;49.848;9.620;2023-05-01T13:05:58;99430.06;;;20.19;36.18
61742;BME280;47650;49.848;9.620;2023-05-01T13:08:37;99429.84;;;18.60;37.57
61742;BME280;47650;49.848;9.620;2023-05-01T13:11:14;99425.81;;;19.71;36.11
61742;BME280;47650;49.848;9.620;2023-05-01T13:13:40;99422.72;;;19.81;35.55
61742;BME280;47650;49.848;9.620;2023-05-01T13:16:11;99409.34;;;21.29;33.61
61742;BME280;47650;49.848;9.620;2023-05-01T13:18:52;99395.13;;;23.00;31.35
61742;BME280;47650;49.848;9.620;2023-05-01T13:21:24;99411.88;;;20.92;33.51
61742;BME280;47650;49.848;9.620;2023-05-01T13:23:53;99374.97;;;21.86;31.69
61742;BME280;47650;49.848;9.620;2023-05-01T13:26:27;99402.88;;;22.96;30.23
61742;BME280;47650;49.848;9.620;2023-05-01T13:28:53;99401.06;;;23.79;29.54
61742;BME280;47650;49.848;9.620;2023-05-01T13:31:19;99271.41;;;23.66;28.99
61742;BME280;47650;49.848;9.620;2023-05-01T13:33:50;99370.34;;;24.67;28.02
61742;BME280;47650;49.848;9.620;2023-05-01T13:36:16;99400.75;;;25.31;27.45
61742;BME280;47650;49.848;9.620;2023-05-01T13:38:44;99393.66;;;25.64;26.74
61742;BME280;47650;49.848;9.620;2023-05-01T13:41:15;99394.94;;;26.67;25.70
61742;BME280;47650;49.848;9.620;2023-05-01T13:43:44;99383.66;;;27.93;24.19
61742;BME280;47650;49.848;9.620;2023-05-01T13:46:10;99305.34;;;28.67;21.10